Terminal Aerodrome Forecast
Issued by NWS

Home | Current Version | Previous Version | Text Only | Print | Product List | Glossary On
Versions: 1 2 3 4 5 6 7 8 9 10 11 12 13 14 15 16 17 18 19 20 21 22 23 24 25 26 27 28 29 30
000
FTUS42 KRAH 310902 AAA
TAFINT
TAF AMD
KINT 310902Z 3109/0106 VRB04KT P6SM -RA SCT015 BKN030
      TEMPO 3109/3113 4SM -RA BR OVC015
     FM311900 13005KT P6SM BKN050
     FM312300 13005KT P6SM BKN100
     FM010000 VRB04KT P6SM BKN250=

USA.gov is the U.S. government's official web portal to all federal, state and local government web resources and services.